Time;durP1;ratioP1;P1;durP2;ratioP2;P2;SDS_P1;SDS_P2;PMS_P1;PMS_P2;Temp;Humidity;BMP_temperature;BMP_pressure;BME280_temperature;BME280_humidity;BME280_pressure;Samples;Min_cycle;Max_cycle;Signal;HPM_P1;HPM_P2
2024/01/29 00:03:00;;;;;;;55.00;24.10;;;;;;;0.47;100.00;102397.09;219450;1267;139398;-86
2024/01/29 00:08:01;;;;;;;50.70;22.40;;;;;;;0.46;100.00;102403.37;220081;1264;138999;-87
2024/01/29 00:13:02;;;;;;;56.40;23.20;;;;;;;0.45;100.00;102410.35;219557;1264;140468;-86
2024/01/29 00:18:02;;;;;;;53.80;24.40;;;;;;;0.41;100.00;102409.08;219923;1264;139203;-86
2024/01/29 00:23:03;;;;;;;55.70;21.90;;;;;;;0.37;100.00;102404.52;219573;1264;139951;-85
2024/01/29 00:28:04;;;;;;;51.30;21.40;;;;;;;0.35;100.00;102402.77;220034;1267;98061;-85
2024/01/29 00:33:04;;;;;;;53.00;22.80;;;;;;;0.33;100.00;102393.81;220231;1267;139944;-86
2024/01/29 00:38:05;;;;;;;48.50;21.90;;;;;;;0.30;100.00;102394.29;219706;1264;139157;-87
2024/01/29 00:43:05;;;;;;;50.50;23.60;;;;;;;0.27;100.00;102396.05;219282;1270;140211;-86
2024/01/29 00:48:06;;;;;;;50.10;22.50;;;;;;;0.24;100.00;102392.88;219746;1264;139000;-86
2024/01/29 00:53:06;;;;;;;52.20;21.90;;;;;;;0.21;100.00;102393.40;219515;1264;140220;-86
2024/01/29 00:58:07;;;;;;;48.70;23.50;;;;;;;0.17;100.00;102395.86;220099;1264;99176;-87
2024/01/29 01:03:08;;;;;;;55.40;23.60;;;;;;;0.12;100.00;102390.74;219947;1269;139770;-87
2024/01/29 01:08:08;;;;;;;60.40;25.00;;;;;;;0.08;100.00;102384.05;220884;1264;138880;-87
2024/01/29 01:13:08;;;;;;;55.80;23.60;;;;;;;0.06;100.00;102378.14;220446;1264;140171;-87
2024/01/29 01:18:09;;;;;;;48.50;23.20;;;;;;;0.05;100.00;102377.53;220966;1264;138941;-87
2024/01/29 01:23:09;;;;;;;50.30;23.50;;;;;;;0.04;100.00;102378.45;220498;1267;140096;-87
2024/01/29 01:28:10;;;;;;;47.80;22.60;;;;;;;0.00;100.00;102380.31;220969;1264;97872;-86
2024/01/29 01:33:10;;;;;;;51.00;22.80;;;;;;;-0.02;100.00;102383.83;220925;1264;139705;-87
2024/01/29 01:38:11;;;;;;;54.30;23.70;;;;;;;-0.04;100.00;102385.59;220899;1264;138945;-87
2024/01/29 01:43:17;;;;;;;50.90;22.50;;;;;;;-0.07;100.00;102383.40;220649;1264;139979;-87
2024/01/29 01:48:17;;;;;;;42.70;18.70;;;;;;;-0.10;100.00;102382.13;223623;1264;138909;-85
2024/01/29 01:53:18;;;;;;;50.60;22.70;;;;;;;-0.13;100.00;102383.03;223363;1263;139874;-86
2024/01/29 01:58:19;;;;;;;46.90;21.70;;;;;;;-0.16;100.00;102376.34;223984;1264;96220;-86
2024/01/29 02:03:20;;;;;;;51.30;21.70;;;;;;;-0.20;100.00;102366.30;223324;1263;139529;-87
2024/01/29 02:08:21;;;;;;;44.40;21.90;;;;;;;-0.22;100.00;102357.41;223825;1264;138864;-87
2024/01/29 02:13:21;;;;;;;46.00;22.60;;;;;;;-0.26;100.00;102348.03;223302;1264;139424;-86
2024/01/29 02:18:22;;;;;;;60.30;23.70;;;;;;;-0.27;100.00;102342.23;223637;1264;139725;-86
2024/01/29 02:23:22;;;;;;;51.90;23.80;;;;;;;-0.27;100.00;102344.23;223304;1264;140344;-86
2024/01/29 02:28:24;;;;;;;51.80;24.40;;;;;;;-0.27;100.00;102345.64;223938;1263;96042;-87
2024/01/29 02:33:25;;;;;;;56.80;24.90;;;;;;;-0.26;100.00;102342.50;223230;1264;139918;-86
2024/01/29 02:38:25;;;;;;;46.90;22.40;;;;;;;-0.26;100.00;102343.04;223779;1264;139471;-87
2024/01/29 02:43:26;;;;;;;57.00;23.40;;;;;;;-0.27;100.00;102335.79;223135;1264;140917;-86
2024/01/29 02:48:26;;;;;;;51.40;22.50;;;;;;;-0.28;100.00;102330.08;223751;1264;138931;-86
2024/01/29 02:53:27;;;;;;;56.50;23.90;;;;;;;-0.29;100.00;102334.73;223206;1264;139755;-86
2024/01/29 02:58:29;;;;;;;52.90;24.80;;;;;;;-0.30;100.00;102329.10;223665;1264;138964;-84
2024/01/29 03:03:29;;;;;;;50.90;23.00;;;;;;;-0.29;100.00;102326.34;223394;1264;140133;-85
2024/01/29 03:08:30;;;;;;;49.10;23.00;;;;;;;-0.31;100.00;102322.77;223691;1264;139195;-86
2024/01/29 03:13:30;;;;;;;45.50;22.30;;;;;;;-0.32;100.00;102322.16;223284;1264;140044;-86
2024/01/29 03:18:31;;;;;;;44.90;20.80;;;;;;;-0.33;100.00;102324.46;223840;1264;139769;-86
2024/01/29 03:23:32;;;;;;;52.30;22.60;;;;;;;-0.34;100.00;102320.46;223149;1263;140746;-86
2024/01/29 03:28:32;;;;;;;43.20;21.30;;;;;;;-0.36;100.00;102308.39;223825;1264;139859;-86
2024/01/29 03:33:32;;;;;;;41.10;19.80;;;;;;;-0.37;100.00;102298.73;223500;1264;140263;-86
2024/01/29 03:38:33;;;;;;;46.70;19.80;;;;;;;-0.40;100.00;102294.66;223919;1264;139009;-86
2024/01/29 03:43:34;;;;;;;42.10;17.50;;;;;;;-0.43;100.00;102286.20;223309;1264;140245;-87
2024/01/29 03:48:34;;;;;;;44.90;20.20;;;;;;;-0.44;100.00;102282.68;223848;1264;140746;-87
2024/01/29 03:53:35;;;;;;;36.70;19.00;;;;;;;-0.44;100.00;102282.95;223254;1264;139888;-86
2024/01/29 03:58:35;;;;;;;38.50;17.50;;;;;;;-0.44;100.00;102284.46;223830;1263;139195;-87
2024/01/29 04:03:39;;;;;;;38.70;18.20;;;;;;;-0.43;100.00;102288.20;223111;1263;139830;-86
2024/01/29 04:08:40;;;;;;;40.10;17.80;;;;;;;-0.43;100.00;102292.05;223820;1264;139043;-88
2024/01/29 04:13:40;;;;;;;41.20;18.70;;;;;;;-0.43;100.00;102285.66;223142;1264;140466;-86
2024/01/29 04:18:41;;;;;;;38.90;17.10;;;;;;;-0.43;100.00;102289.88;223831;1264;139875;-87
2024/01/29 04:23:41;;;;;;;39.80;17.70;;;;;;;-0.43;100.00;102289.02;223141;1264;140281;-87
2024/01/29 04:28:42;;;;;;;39.20;17.50;;;;;;;-0.44;100.00;102289.34;223802;1263;139204;-87
2024/01/29 04:33:43;;;;;;;36.20;17.10;;;;;;;-0.44;100.00;102286.77;223423;1264;139773;-85
2024/01/29 04:38:44;;;;;;;35.30;17.20;;;;;;;-0.45;100.00;102289.17;223739;1263;139004;-87
2024/01/29 04:43:44;;;;;;;39.40;18.10;;;;;;;-0.47;100.00;102282.29;223282;1263;139897;-87
2024/01/29 04:48:45;;;;;;;43.50;18.60;;;;;;;-0.48;100.00;102281.19;223822;1264;139171;-87
2024/01/29 04:53:46;;;;;;;39.10;18.30;;;;;;;-0.47;100.00;102278.75;223230;1265;140392;-87
2024/01/29 04:58:46;;;;;;;37.40;16.80;;;;;;;-0.48;100.00;102280.77;223813;1264;139728;-86
2024/01/29 05:03:47;;;;;;;37.90;18.10;;;;;;;-0.49;100.00;102282.75;223351;1265;140269;-87
2024/01/29 05:08:48;;;;;;;37.90;18.60;;;;;;;-0.51;100.00;102282.45;223787;1264;139257;-87
2024/01/29 05:13:49;;;;;;;37.90;19.00;;;;;;;-0.52;100.00;102280.14;223238;1264;140340;-87
2024/01/29 05:18:49;;;;;;;41.20;19.60;;;;;;;-0.53;100.00;102278.77;223767;1264;139720;-88
2024/01/29 05:23:50;;;;;;;43.00;19.50;;;;;;;-0.53;100.00;102282.13;223333;1264;140007;-87
2024/01/29 05:28:50;;;;;;;44.00;19.20;;;;;;;-0.54;100.00;102277.58;223641;1263;139122;-87
2024/01/29 05:33:51;;;;;;;38.20;19.40;;;;;;;-0.54;100.00;102273.77;223394;1264;140342;-86
2024/01/29 05:38:51;;;;;;;45.50;19.50;;;;;;;-0.54;100.00;102270.75;223946;1264;139631;-87
2024/01/29 05:43:52;;;;;;;46.70;22.00;;;;;;;-0.55;100.00;102271.61;223278;1263;140771;-87
2024/01/29 05:48:52;;;;;;;48.30;22.80;;;;;;;-0.55;100.00;102269.98;223788;1264;139173;-86
2024/01/29 05:53:53;;;;;;;52.40;24.70;;;;;;;-0.56;100.00;102270.33;223235;1264;140140;-87
2024/01/29 05:58:53;;;;;;;51.20;24.00;;;;;;;-0.58;100.00;102274.25;223613;1264;139761;-88
2024/01/29 06:03:54;;;;;;;44.30;21.30;;;;;;;-0.59;100.00;102274.17;223335;1264;139694;-89
2024/01/29 06:08:55;;;;;;;43.00;20.80;;;;;;;-0.61;100.00;102269.58;223758;1263;139050;-88
2024/01/29 06:13:56;;;;;;;46.70;21.60;;;;;;;-0.61;100.00;102269.95;223474;1264;140250;-88
2024/01/29 06:18:56;;;;;;;46.90;22.50;;;;;;;-0.62;100.00;102268.27;223783;1264;139189;-87
2024/01/29 06:23:57;;;;;;;40.10;20.70;;;;;;;-0.63;100.00;102273.39;223256;1264;139954;-87
2024/01/29 06:28:58;;;;;;;43.80;20.00;;;;;;;-0.64;100.00;102270.20;223801;1264;139165;-86
2024/01/29 06:33:59;;;;;;;49.40;22.10;;;;;;;-0.63;100.00;102277.02;223402;1264;140221;-86
2024/01/29 06:38:59;;;;;;;45.30;21.90;;;;;;;-0.63;100.00;102281.77;224096;1264;139253;-87
2024/01/29 06:44:00;;;;;;;45.90;21.60;;;;;;;-0.62;100.00;102278.59;223178;1264;139840;-87
2024/01/29 06:49:00;;;;;;;51.60;23.60;;;;;;;-0.61;100.00;102277.19;223809;1264;139260;-87
2024/01/29 06:54:03;;;;;;;48.10;22.70;;;;;;;-0.60;100.00;102283.20;223130;1264;140423;-87
2024/01/29 06:59:04;;;;;;;54.90;22.90;;;;;;;-0.60;100.00;102288.17;223903;1264;139421;-88
2024/01/29 07:04:04;;;;;;;58.40;25.50;;;;;;;-0.58;100.00;102285.86;223419;1264;140502;-87
2024/01/29 07:09:05;;;;;;;54.20;25.00;;;;;;;-0.56;100.00;102277.83;223753;1264;139117;-89
2024/01/29 07:14:05;;;;;;;62.70;29.80;;;;;;;-0.54;100.00;102277.80;223206;1264;139363;-87
2024/01/29 07:19:06;;;;;;;79.50;30.30;;;;;;;-0.51;100.00;102277.05;223768;1264;139719;-88
2024/01/29 07:24:06;;;;;;;59.60;28.00;;;;;;;-0.47;100.00;102271.13;223264;1264;139705;-87
2024/01/29 07:29:07;;;;;;;64.00;28.90;;;;;;;-0.43;100.00;102267.65;223783;1264;139194;-88
2024/01/29 07:34:07;;;;;;;58.80;27.20;;;;;;;-0.37;100.00;102264.39;223184;1264;143374;-86
2024/01/29 07:39:11;;;;;;;64.10;30.50;;;;;;;-0.32;100.00;102261.13;224064;1264;139715;-88
2024/01/29 07:44:11;;;;;;;61.90;26.80;;;;;;;-0.26;100.00;102257.87;223187;1264;139288;-88
2024/01/29 07:49:12;;;;;;;71.00;31.70;;;;;;;-0.19;100.00;102258.18;223778;1264;139504;-89
2024/01/29 07:54:13;;;;;;;71.30;32.20;;;;;;;-0.13;100.00;102254.48;223145;1264;139889;-91
2024/01/29 07:59:13;;;;;;;67.50;31.20;;;;;;;-0.05;100.00;102254.05;223766;1264;139692;-89
2024/01/29 08:04:13;;;;;;;58.80;27.20;;;;;;;0.04;100.00;102252.85;223218;1264;139095;-89
2024/01/29 08:09:14;;;;;;;54.00;26.50;;;;;;;0.14;100.00;102249.44;223769;1264;138741;-89
2024/01/29 08:14:15;;;;;;;54.00;26.10;;;;;;;0.27;100.00;102248.73;223168;1266;140030;-90
2024/01/29 08:19:15;;;;;;;61.70;27.40;;;;;;;0.41;100.00;102249.21;223810;1263;139058;-89
2024/01/29 08:24:15;;;;;;;56.00;27.00;;;;;;;0.56;100.00;102251.11;223304;1263;138955;-89
2024/01/29 08:29:16;;;;;;;54.70;27.30;;;;;;;0.73;100.00;102255.27;223804;1264;138795;-89
2024/01/29 08:34:17;;;;;;;55.30;27.60;;;;;;;0.93;100.00;102253.14;223321;1264;139962;-89
2024/01/29 08:39:17;;;;;;;57.30;27.00;;;;;;;1.15;100.00;102253.77;223815;1264;139269;-90
2024/01/29 08:44:18;;;;;;;57.50;27.30;;;;;;;1.44;100.00;102257.42;223362;1263;139778;-89
2024/01/29 08:49:18;;;;;;;50.60;25.50;;;;;;;1.78;100.00;102254.07;223828;1266;138897;-88
2024/01/29 08:54:19;;;;;;;53.90;27.30;;;;;;;2.10;100.00;102250.84;223115;1264;139263;-86
2024/01/29 08:59:21;;;;;;;54.30;25.20;;;;;;;2.49;100.00;102241.17;223781;1265;140064;-88
2024/01/29 09:04:21;;;;;;;51.70;25.80;;;;;;;2.88;100.00;102250.73;223263;1264;139716;-88
2024/01/29 09:09:21;;;;;;;49.40;25.50;;;;;;;3.26;100.00;102242.89;223627;1264;138836;-88
2024/01/29 09:14:22;;;;;;;46.60;25.40;;;;;;;3.69;100.00;102242.35;223267;1264;139966;-88
2024/01/29 09:19:23;;;;;;;45.20;25.80;;;;;;;4.14;100.00;102244.14;223766;1264;138941;-88
2024/01/29 09:24:25;;;;;;;48.50;23.60;;;;;;;4.57;100.00;102249.27;223359;1264;140007;-89
2024/01/29 09:29:25;;;;;;;44.10;23.30;;;;;;;5.00;100.00;102255.89;223806;1265;139493;-88
2024/01/29 09:34:27;;;;;;;41.80;23.10;;;;;;;5.47;100.00;102259.73;223359;1265;139910;-90
2024/01/29 09:39:28;;;;;;;44.10;24.90;;;;;;;5.95;100.00;102259.42;224244;1264;96450;-90
2024/01/29 09:44:35;;;;;;;42.70;23.90;;;;;;;6.35;100.00;102256.19;223203;1264;139254;-88
2024/01/29 09:49:37;;;;;;;47.50;24.80;;;;;;;6.62;100.00;102255.17;223697;1265;138822;-90
2024/01/29 09:54:38;;;;;;;40.20;23.30;;;;;;;6.91;100.00;102246.37;223167;1263;139868;-92
2024/01/29 09:59:40;;;;;;;46.10;23.10;;;;;;;7.04;100.00;102250.19;223714;1265;139320;-90
2024/01/29 10:04:40;;;;;;;44.70;24.90;;;;;;;7.09;100.00;102247.83;223179;1265;139864;-89
2024/01/29 10:09:41;;;;;;;49.40;24.30;;;;;;;7.18;100.00;102255.17;223884;1264;96422;-92
2024/01/29 10:14:42;;;;;;;40.30;21.30;;;;;;;7.08;100.00;102258.64;223182;1264;139375;-87
2024/01/29 10:19:44;;;;;;;42.70;22.60;;;;;;;7.02;100.00;102254.71;223838;1264;139149;-89
2024/01/29 10:24:44;;;;;;;47.90;22.80;;;;;;;6.89;100.00;102248.90;222894;1264;421214;-90
2024/01/29 10:29:48;;;;;;;48.30;24.00;;;;;;;6.75;100.00;102235.30;223790;1264;138960;-89
2024/01/29 10:34:49;;;;;;;49.20;23.10;;;;;;;6.61;100.00;102222.98;223153;1267;139242;-89
2024/01/29 10:40:08;;;;;;;46.50;23.00;;;;;;;6.50;100.00;102214.69;222908;1263;97908;-90
2024/01/29 10:45:10;;;;;;;40.50;22.50;;;;;;;6.31;100.00;102215.58;223821;1266;138633;-90
2024/01/29 10:50:16;;;;;;;54.90;24.20;;;;;;;6.18;100.00;102209.58;223252;1264;140988;-90
2024/01/29 10:55:16;;;;;;;48.30;23.60;;;;;;;6.13;100.00;102204.13;223726;1269;139075;-89
2024/01/29 11:00:19;;;;;;;52.80;23.80;;;;;;;6.14;100.00;102203.31;223105;1264;139746;-88
2024/01/29 11:05:20;;;;;;;44.40;21.80;;;;;;;6.12;100.00;102198.86;223819;1264;138880;-91
2024/01/29 11:10:22;;;;;;;46.40;23.60;;;;;;;6.11;100.00;102189.03;223407;1264;139692;-89
2024/01/29 11:15:23;;;;;;;47.40;22.50;;;;;;;6.12;100.00;102194.64;223724;1264;139016;-89
2024/01/29 11:20:24;;;;;;;44.20;22.00;;;;;;;6.13;100.00;102186.34;223288;1264;139597;-89
2024/01/29 11:25:27;;;;;;;45.10;21.80;;;;;;;6.18;100.00;102180.98;223610;1264;138775;-91
2024/01/29 11:30:28;;;;;;;43.70;21.80;;;;;;;6.22;100.00;102172.23;223040;1264;140086;-90
2024/01/29 11:35:30;;;;;;;46.00;22.50;;;;;;;6.28;100.00;102165.93;223836;1264;139373;-89
2024/01/29 11:40:43;;;;;;;42.10;21.30;;;;;;;6.35;100.00;102158.93;223678;1264;139842;-92
2024/01/29 11:45:54;;;;;;;39.30;20.80;;;;;;;6.42;99.98;102154.04;223870;1264;104032;-90
2024/01/29 11:50:57;;;;;;;36.60;18.00;;;;;;;6.46;99.02;102155.63;223096;1264;139829;-90
2024/01/29 11:55:57;;;;;;;38.60;19.20;;;;;;;6.50;99.11;102146.46;224019;1264;138535;-90
2024/01/29 12:00:58;;;;;;;39.70;21.10;;;;;;;6.54;97.23;102143.96;223218;1264;139509;-91
2024/01/29 12:05:59;;;;;;;45.00;19.90;;;;;;;6.58;98.21;102138.35;223909;1264;138635;-92
2024/01/29 12:11:02;;;;;;;49.30;21.20;;;;;;;6.61;96.80;102141.34;223324;1264;139149;-90
2024/01/29 12:16:03;;;;;;;42.90;18.70;;;;;;;6.62;96.53;102136.55;223924;1264;96334;-91
2024/01/29 12:21:06;;;;;;;39.20;19.50;;;;;;;6.63;95.81;102135.54;223154;1264;139703;-91
2024/01/29 12:26:07;;;;;;;36.80;18.00;;;;;;;6.65;95.54;102129.46;223789;1264;138536;-89
2024/01/29 12:31:10;;;;;;;40.30;20.30;;;;;;;6.69;95.99;102126.00;223296;1264;140031;-89
2024/01/29 12:36:12;;;;;;;45.10;20.80;;;;;;;6.68;94.77;102115.41;223834;1264;138706;-90
2024/01/29 12:41:13;;;;;;;41.10;20.50;;;;;;;6.68;94.84;102113.11;223672;1264;139724;-89
2024/01/29 12:46:14;;;;;;;36.40;19.30;;;;;;;6.69;95.08;102106.02;223927;1264;96244;-89
2024/01/29 12:51:15;;;;;;;35.10;18.60;;;;;;;6.69;94.12;102100.65;223293;1264;139809;-89
2024/01/29 12:56:15;;;;;;;38.90;19.50;;;;;;;6.69;94.52;102096.99;223867;1264;139293;-88
2024/01/29 13:01:16;;;;;;;37.40;19.60;;;;;;;6.70;94.26;102096.20;223325;1264;139566;-90
2024/01/29 13:06:16;;;;;;;40.70;18.90;;;;;;;6.72;93.37;102090.78;223714;1264;138620;-90
2024/01/29 13:11:17;;;;;;;41.10;19.50;;;;;;;6.75;93.32;102090.39;223302;1264;139277;-89
2024/01/29 13:16:18;;;;;;;47.40;20.20;;;;;;;6.75;92.39;102087.86;223895;1264;96432;-87
2024/01/29 13:21:21;;;;;;;36.80;17.30;;;;;;;6.78;93.02;102089.77;223263;1264;139570;-90
2024/01/29 13:26:21;;;;;;;34.50;17.70;;;;;;;6.82;92.47;102096.16;223855;1264;138912;-90
2024/01/29 13:31:22;;;;;;;37.20;18.70;;;;;;;6.85;91.77;102098.50;223293;1264;140577;-89
2024/01/29 13:36:22;;;;;;;31.70;17.10;;;;;;;6.89;92.32;102092.60;223805;1264;138888;-89
2024/01/29 13:41:23;;;;;;;38.10;18.10;;;;;;;6.92;91.89;102091.36;223422;1264;139301;-88
2024/01/29 13:46:24;;;;;;;37.60;18.30;;;;;;;6.93;91.55;102087.56;223409;1264;96116;-89
2024/01/29 13:51:24;;;;;;;39.00;17.90;;;;;;;6.94;91.16;102090.22;223260;1264;139531;-89
2024/01/29 13:56:24;;;;;;;38.20;18.00;;;;;;;6.94;90.55;102087.13;223735;1264;138615;-89
2024/01/29 14:01:25;;;;;;;40.20;18.90;;;;;;;6.92;90.25;102083.38;223212;1264;140193;-87
2024/01/29 14:06:25;;;;;;;37.20;18.00;;;;;;;6.90;90.04;102085.94;223632;1264;138878;-89
2024/01/29 14:11:26;;;;;;;35.50;18.30;;;;;;;6.89;88.47;102089.47;223192;1264;139668;-89
2024/01/29 14:16:26;;;;;;;45.10;20.70;;;;;;;6.87;89.19;102087.25;223954;1264;97814;-89
2024/01/29 14:21:27;;;;;;;38.80;18.50;;;;;;;6.86;87.93;102092.83;223211;1264;139677;-92
2024/01/29 14:26:27;;;;;;;44.00;20.20;;;;;;;6.85;88.86;102094.51;223760;1263;139623;-90
2024/01/29 14:31:28;;;;;;;47.20;23.00;;;;;;;6.84;88.64;102089.83;223280;1264;139783;-90
2024/01/29 14:36:28;;;;;;;39.20;20.60;;;;;;;6.81;89.58;102093.67;223718;1264;139294;-88
2024/01/29 14:41:29;;;;;;;43.40;22.20;;;;;;;6.79;89.66;102093.89;223438;1264;139870;-89
2024/01/29 14:46:30;;;;;;;54.10;24.70;;;;;;;6.76;89.59;102092.05;223657;1264;138815;-90
2024/01/29 14:51:31;;;;;;;43.90;20.60;;;;;;;6.70;89.50;102088.77;223402;1264;140575;-90
2024/01/29 14:56:31;;;;;;;42.60;22.10;;;;;;;6.67;90.30;102089.27;223828;1264;138526;-90
2024/01/29 15:01:34;;;;;;;41.50;20.70;;;;;;;6.61;90.08;102093.61;223272;1264;139745;-89
2024/01/29 15:06:34;;;;;;;41.80;20.60;;;;;;;6.52;90.30;102098.38;223708;1264;138689;-89
2024/01/29 15:11:34;;;;;;;41.50;20.40;;;;;;;6.44;90.21;102095.98;223189;1264;140737;-89
2024/01/29 15:16:35;;;;;;;43.10;21.90;;;;;;;6.39;90.76;102094.42;223794;1264;138900;-90
2024/01/29 15:21:35;;;;;;;43.80;20.10;;;;;;;6.33;91.24;102101.52;223289;1264;140005;-91
2024/01/29 15:26:36;;;;;;;46.10;21.40;;;;;;;6.29;91.15;102099.65;223808;1264;139421;-89
2024/01/29 15:31:36;;;;;;;43.70;21.10;;;;;;;6.19;91.09;102088.93;222855;1264;140068;-90
2024/01/29 15:36:37;;;;;;;44.40;20.60;;;;;;;6.11;91.59;102076.64;223787;1264;138846;-89
2024/01/29 15:41:38;;;;;;;39.20;19.30;;;;;;;6.03;91.81;102071.95;223338;1265;139250;-88
2024/01/29 15:46:42;;;;;;;40.20;18.20;;;;;;;5.95;91.90;102073.49;223642;1264;138737;-87
2024/01/29 15:51:43;;;;;;;46.00;20.20;;;;;;;5.88;92.39;102067.52;223347;1264;139809;-87
2024/01/29 15:56:43;;;;;;;38.50;17.60;;;;;;;5.79;92.78;102066.87;223812;1263;138801;-87
2024/01/29 16:01:44;;;;;;;43.90;19.80;;;;;;;5.72;93.27;102071.35;223229;1265;140037;-88
2024/01/29 16:06:44;;;;;;;48.20;19.10;;;;;;;5.68;93.17;102071.97;223735;1265;139090;-92
2024/01/29 16:11:45;;;;;;;36.70;19.30;;;;;;;5.64;93.37;102070.13;223341;1267;139904;-91
2024/01/29 16:16:45;;;;;;;38.90;20.90;;;;;;;5.60;93.76;102077.31;223802;1264;138905;-91
2024/01/29 16:21:46;;;;;;;43.70;19.90;;;;;;;5.56;93.81;102085.05;223344;1264;139611;-92
2024/01/29 16:26:48;;;;;;;51.10;23.90;;;;;;;5.49;94.17;102082.19;223929;1263;138803;-89
2024/01/29 16:31:52;;;;;;;48.60;24.30;;;;;;;5.44;94.27;102076.22;223189;1263;140804;-91
2024/01/29 16:36:52;;;;;;;49.00;25.10;;;;;;;5.40;94.56;102076.84;224002;1263;139118;-91
2024/01/29 16:41:53;;;;;;;49.70;24.70;;;;;;;5.33;94.98;102075.18;223869;1263;139801;-92
2024/01/29 16:46:54;;;;;;;52.50;27.10;;;;;;;5.26;95.35;102080.55;223877;1264;138881;-91
2024/01/29 16:51:54;;;;;;;54.50;24.70;;;;;;;5.19;95.51;102084.89;223513;1263;141128;-91
2024/01/29 16:57:06;;;;;;;51.00;26.50;;;;;;;5.10;95.80;102077.45;223823;1263;139834;-89
2024/01/29 17:02:07;;;;;;;55.60;29.40;;;;;;;4.99;96.00;102075.98;223405;1264;139827;-90
2024/01/29 17:07:07;;;;;;;50.80;23.70;;;;;;;4.91;96.58;102077.59;223673;1264;138621;-91
2024/01/29 17:12:11;;;;;;;50.30;24.60;;;;;;;4.84;97.19;102083.17;222825;1264;139473;-89
2024/01/29 17:17:12;;;;;;;50.20;24.40;;;;;;;4.78;97.45;102084.05;223900;1264;141148;-89
2024/01/29 17:22:12;;;;;;;46.60;25.10;;;;;;;4.70;97.95;102080.17;223361;1264;139740;-90
2024/01/29 17:27:13;;;;;;;47.30;24.60;;;;;;;4.64;98.38;102081.31;223862;1264;138996;-90
2024/01/29 17:32:13;;;;;;;49.10;24.20;;;;;;;4.57;98.84;102091.30;223315;1264;141095;-88
2024/01/29 17:37:14;;;;;;;50.20;23.30;;;;;;;4.50;99.08;102088.58;223704;1263;140545;-88
2024/01/29 17:42:15;;;;;;;57.60;25.60;;;;;;;4.42;99.60;102084.17;223577;1264;139590;-88
2024/01/29 17:47:15;;;;;;;50.50;24.20;;;;;;;4.40;99.90;102084.91;223892;1264;138764;-87
2024/01/29 17:52:16;;;;;;;51.20;23.30;;;;;;;4.35;100.00;102086.58;223441;1264;140294;-89
2024/01/29 17:57:16;;;;;;;48.20;22.70;;;;;;;4.30;100.00;102083.97;223795;1264;139231;-90
2024/01/29 18:02:17;;;;;;;49.40;23.70;;;;;;;4.26;100.00;102083.27;223089;1264;141485;-89
2024/01/29 18:07:18;;;;;;;52.20;23.20;;;;;;;4.22;100.00;102085.83;223542;1264;139132;-90
2024/01/29 18:12:18;;;;;;;41.80;21.40;;;;;;;4.19;100.00;102084.45;223239;1265;140048;-89
2024/01/29 18:17:20;;;;;;;47.90;22.80;;;;;;;4.16;100.00;102087.01;223793;1263;138811;-92
2024/01/29 18:22:22;;;;;;;48.90;21.70;;;;;;;4.14;100.00;102086.38;223215;1264;140427;-91
2024/01/29 18:27:23;;;;;;;44.40;21.90;;;;;;;4.12;100.00;102085.00;223754;1264;139988;-91
2024/01/29 18:32:23;;;;;;;43.90;21.50;;;;;;;4.13;100.00;102084.83;223316;1264;141025;-90
2024/01/29 18:37:25;;;;;;;43.00;19.80;;;;;;;4.13;100.00;102086.30;223667;1264;139135;-89
2024/01/29 18:42:25;;;;;;;45.20;21.10;;;;;;;4.12;100.00;102086.64;223753;1264;138851;-90
2024/01/29 18:47:26;;;;;;;42.80;20.70;;;;;;;4.09;100.00;102079.48;223762;1264;138996;-91
2024/01/29 18:52:26;;;;;;;48.40;21.60;;;;;;;4.07;100.00;102081.90;223346;1264;139809;-91
2024/01/29 18:57:27;;;;;;;45.60;22.30;;;;;;;4.04;100.00;102078.07;223616;1263;139083;-91
2024/01/29 19:02:27;;;;;;;57.20;28.00;;;;;;;4.02;100.00;102077.89;223145;1263;139770;-90
2024/01/29 19:07:28;;;;;;;49.70;25.80;;;;;;;3.97;100.00;102081.40;223770;1264;140180;-90
2024/01/29 19:12:35;;;;;;;51.80;26.90;;;;;;;3.91;100.00;102080.17;223294;1264;140060;-91
2024/01/29 19:17:36;;;;;;;61.70;26.40;;;;;;;3.85;100.00;102073.17;223765;1264;138900;-91
2024/01/29 19:22:37;;;;;;;87.60;37.70;;;;;;;3.79;100.00;102075.26;223171;1264;139633;-92
2024/01/29 19:27:37;;;;;;;76.20;31.90;;;;;;;3.73;100.00;102073.92;223842;1264;96260;-92
2024/01/29 19:32:38;;;;;;;75.90;30.20;;;;;;;3.64;100.00;102067.89;223127;1264;140258;-90
2024/01/29 19:37:39;;;;;;;78.80;29.70;;;;;;;3.56;100.00;102071.63;223766;1264;139337;-90
2024/01/29 19:42:39;;;;;;;77.00;30.40;;;;;;;3.49;100.00;102071.33;223472;1264;140422;-90
2024/01/29 19:47:39;;;;;;;61.80;29.30;;;;;;;3.41;100.00;102070.66;223838;1264;138947;-91
2024/01/29 19:52:40;;;;;;;63.80;29.30;;;;;;;3.34;100.00;102069.38;223145;1264;141517;-88
2024/01/29 19:57:42;;;;;;;67.10;28.20;;;;;;;3.27;100.00;102066.73;223872;1264;96307;-90
2024/01/29 20:02:42;;;;;;;91.40;36.00;;;;;;;3.19;100.00;102073.57;223284;1264;139649;-87
2024/01/29 20:07:43;;;;;;;75.10;29.00;;;;;;;3.13;100.00;102075.98;223744;1265;139493;-89
2024/01/29 20:12:43;;;;;;;65.50;28.10;;;;;;;3.08;100.00;102074.71;223096;1264;140425;-88
2024/01/29 20:17:43;;;;;;;66.90;27.80;;;;;;;3.03;100.00;102073.40;223742;1264;139922;-91
2024/01/29 20:22:44;;;;;;;74.30;29.60;;;;;;;2.95;100.00;102072.07;223310;1264;140336;-92
2024/01/29 20:27:44;;;;;;;89.50;35.20;;;;;;;2.87;100.00;102071.48;223894;1264;105653;-90
2024/01/29 20:32:45;;;;;;;65.90;29.50;;;;;;;2.81;100.00;102077.41;223322;1264;140323;-89
2024/01/29 20:37:47;;;;;;;64.70;28.00;;;;;;;2.76;100.00;102083.29;223408;1264;139971;-89
2024/01/29 20:42:48;;;;;;;66.90;27.00;;;;;;;2.70;100.00;102087.95;223437;1264;140932;-89
2024/01/29 20:47:49;;;;;;;59.60;26.70;;;;;;;2.65;100.00;102089.52;223851;1264;139372;-89
2024/01/29 20:52:51;;;;;;;65.70;28.40;;;;;;;2.59;100.00;102082.11;223188;1264;139733;-88
2024/01/29 20:57:52;;;;;;;54.70;26.70;;;;;;;2.56;100.00;102082.35;223922;1264;96270;-89
2024/01/29 21:02:52;;;;;;;56.00;26.20;;;;;;;2.52;100.00;102081.35;223298;1264;139685;-90
2024/01/29 21:07:53;;;;;;;52.10;26.10;;;;;;;2.47;100.00;102082.59;223781;1264;139345;-91
2024/01/29 21:12:54;;;;;;;58.20;28.20;;;;;;;2.42;100.00;102081.00;223298;1264;140078;-91
2024/01/29 21:17:54;;;;;;;58.80;29.10;;;;;;;2.37;100.00;102090.00;223786;1263;139480;-90
2024/01/29 21:22:56;;;;;;;60.60;27.20;;;;;;;2.34;100.00;102091.27;223204;1264;140218;-89
2024/01/29 21:27:56;;;;;;;62.30;28.70;;;;;;;2.29;100.00;102088.75;223881;1265;96195;-89
2024/01/29 21:32:58;;;;;;;62.90;28.20;;;;;;;2.26;100.00;102082.80;222900;1264;140309;-90
2024/01/29 21:37:59;;;;;;;56.30;29.60;;;;;;;2.25;100.00;102076.23;222972;1266;138741;-90
2024/01/29 21:42:59;;;;;;;69.50;32.40;;;;;;;2.24;100.00;102072.65;221761;1264;139242;-88
2024/01/29 21:48:00;;;;;;;64.20;30.60;;;;;;;2.19;100.00;102071.70;221083;1264;138851;-88
2024/01/29 21:53:00;;;;;;;70.30;32.00;;;;;;;2.14;100.00;102068.02;220859;1266;140009;-88
2024/01/29 21:58:01;;;;;;;68.40;30.10;;;;;;;2.10;100.00;102071.48;221207;1265;98265;-88
2024/01/29 22:03:01;;;;;;;64.50;30.10;;;;;;;2.05;100.00;102067.50;220630;1264;140033;-88
2024/01/29 22:08:04;;;;;;;78.10;32.60;;;;;;;1.98;100.00;102076.11;221113;1266;138860;-90
2024/01/29 22:13:05;;;;;;;72.20;34.20;;;;;;;1.93;100.00;102073.91;220858;1264;139830;-89
2024/01/29 22:18:06;;;;;;;64.30;30.70;;;;;;;1.87;100.00;102073.52;221099;1267;138930;-92